Time;durP1;ratioP1;P1;durP2;ratioP2;P2;SDS_P1;SDS_P2;PMS_P1;PMS_P2;Temp;Humidity;BMP_temperature;BMP_pressure;BME280_temperature;BME280_humidity;BME280_pressure;Samples;Min_cycle;Max_cycle;Signal;HPM_P1;HPM_P2
2023/08/31 00:00:55;;;;;;;20.07;19.37;;;16.40;99.90;;;;;;5112934;28;20202;-62
2023/08/31 00:03:22;;;;;;;22.13;21.33;;;16.40;99.90;;;;;;5117851;28;20419;-61
2023/08/31 00:05:51;;;;;;;20.17;19.47;;;16.40;99.90;;;;;;5120705;28;20201;-63
2023/08/31 00:08:17;;;;;;;22.70;21.90;;;16.30;99.90;;;;;;5125175;28;20750;-63
2023/08/31 00:10:45;;;;;;;23.03;22.23;;;16.30;99.90;;;;;;5124137;28;20273;-62
2023/08/31 00:13:12;;;;;;;19.93;19.23;;;16.20;99.90;;;;;;5121058;28;20625;-63
2023/08/31 00:15:41;;;;;;;22.67;21.87;;;16.20;99.90;;;;;;5112578;28;20202;-62
2023/08/31 00:18:08;;;;;;;22.53;21.73;;;16.20;99.90;;;;;;5103382;28;20242;-62
2023/08/31 00:20:34;;;;;;;19.55;18.85;;;16.10;99.90;;;;;;5091525;28;20549;-61
2023/08/31 00:23:01;;;;;;;29.60;28.58;;;16.10;99.90;;;;;;5091763;28;20199;-62
2023/08/31 00:25:29;;;;;;;20.90;20.20;;;16.00;99.90;;;;;;5091734;28;20206;-61
2023/08/31 00:27:57;;;;;;;19.15;18.50;;;16.00;99.90;;;;;;5091616;28;20218;-62
2023/08/31 00:30:29;;;;;;;21.37;20.67;;;16.00;99.90;;;;;;5091569;28;20306;-62
2023/08/31 00:32:59;;;;;;;21.97;21.17;;;15.90;99.90;;;;;;5091535;28;20195;-63
2023/08/31 00:35:26;;;;;;;21.20;20.50;;;15.90;99.90;;;;;;5091529;28;20203;-63
2023/08/31 00:37:58;;;;;;;18.20;17.60;;;15.90;99.90;;;;;;5091228;28;20238;-63
2023/08/31 00:40:25;;;;;;;17.57;16.97;;;15.80;99.90;;;;;;5091305;28;20202;-62
2023/08/31 00:42:52;;;;;;;20.17;19.45;;;15.80;99.90;;;;;;5091032;28;20210;-63
2023/08/31 00:45:19;;;;;;;20.37;19.67;;;15.70;99.90;;;;;;5091360;28;20210;-62
2023/08/31 00:47:47;;;;;;;20.95;20.25;;;15.60;99.90;;;;;;5091247;28;20219;-61
2023/08/31 00:50:15;;;;;;;20.42;19.70;;;15.70;99.90;;;;;;5091065;28;20202;-63
2023/08/31 00:52:44;;;;;;;19.47;18.77;;;15.60;99.90;;;;;;5090959;28;20195;-61
2023/08/31 00:55:11;;;;;;;21.80;21.00;;;15.60;99.90;;;;;;5091409;28;20210;-63
2023/08/31 00:57:38;;;;;;;22.10;21.35;;;15.60;99.90;;;;;;5091601;28;20316;-61
2023/08/31 01:00:08;;;;;;;19.37;18.67;;;15.60;99.90;;;;;;5091226;28;20256;-62
2023/08/31 01:02:43;;;;;;;19.90;19.10;;;15.60;99.90;;;;;;5090712;28;20248;-61
2023/08/31 01:05:22;;;;;;;22.40;21.63;;;15.60;99.90;;;;;;5090730;28;20187;-61
2023/08/31 01:07:55;;;;;;;21.00;20.30;;;15.80;99.90;;;;;;5090440;28;20226;-61
2023/08/31 01:10:30;;;;;;;19.15;18.45;;;15.60;99.90;;;;;;5090562;28;20189;-61
2023/08/31 01:13:05;;;;;;;19.27;18.57;;;15.60;99.90;;;;;;5090908;28;20190;-61
2023/08/31 01:15:33;;;;;;;21.47;20.73;;;15.60;99.90;;;;;;5090532;28;20626;-61
2023/08/31 01:18:01;;;;;;;21.27;20.57;;;15.70;99.90;;;;;;5090469;28;20717;-62
2023/08/31 01:20:47;;;;;;;22.27;21.35;;;15.70;99.90;;;;;;5090582;28;20202;-63
2023/08/31 01:23:19;;;;;;;20.60;19.90;;;15.70;99.90;;;;;;5090466;28;20229;-63
2023/08/31 01:25:48;;;;;;;20.03;19.30;;;15.70;99.90;;;;;;5090300;28;20567;-61
2023/08/31 01:28:15;;;;;;;23.07;22.27;;;15.60;99.90;;;;;;5090598;28;20222;-61
2023/08/31 01:30:42;;;;;;;23.87;23.03;;;15.50;99.90;;;;;;5090717;28;20267;-61
2023/08/31 01:33:09;;;;;;;20.40;19.70;;;15.60;99.90;;;;;;5090604;28;20917;-62
2023/08/31 01:35:43;;;;;;;24.93;24.07;;;15.60;99.90;;;;;;5089247;28;20202;-63
2023/08/31 01:38:11;;;;;;;21.03;20.33;;;15.60;99.90;;;;;;5090210;28;20728;-62
2023/08/31 01:40:43;;;;;;;22.37;21.57;;;15.50;99.90;;;;;;5090485;28;20198;-62
2023/08/31 01:43:12;;;;;;;22.10;21.30;;;15.60;99.90;;;;;;5090369;28;20195;-63
2023/08/31 01:45:39;;;;;;;22.87;21.97;;;15.50;99.90;;;;;;5090407;28;20288;-62
2023/08/31 01:48:07;;;;;;;22.93;22.13;;;15.50;99.90;;;;;;5090340;28;20225;-62
2023/08/31 01:50:34;;;;;;;23.80;22.90;;;15.50;99.90;;;;;;5090423;28;20591;-62
2023/08/31 01:53:00;;;;;;;23.13;22.33;;;15.50;99.90;;;;;;5089896;28;20216;-61
2023/08/31 01:55:27;;;;;;;25.83;24.93;;;15.50;99.90;;;;;;5090550;28;20198;-61
2023/08/31 01:57:54;;;;;;;25.00;24.13;;;15.50;99.90;;;;;;5090138;28;20232;-64
2023/08/31 02:00:22;;;;;;;22.77;21.97;;;15.50;99.90;;;;;;5089923;28;20202;-61
2023/08/31 02:02:49;;;;;;;23.87;23.07;;;15.50;99.90;;;;;;5090132;28;20205;-61
2023/08/31 02:05:16;;;;;;;22.90;22.10;;;15.50;99.90;;;;;;5089925;28;20222;-61
2023/08/31 02:10:11;;;;;;;24.17;23.33;;;15.60;99.90;;;;;;5058219;28;20211;-63
2023/08/31 02:12:37;;;;;;;21.40;20.63;;;15.60;99.90;;;;;;5062712;28;20199;-62
2023/08/31 02:15:05;;;;;;;24.20;23.30;;;15.60;99.90;;;;;;5075301;28;20207;-62
2023/08/31 02:17:34;;;;;;;25.43;24.53;;;15.60;99.90;;;;;;5075204;28;20227;-62
2023/08/31 02:20:02;;;;;;;23.50;22.70;;;15.60;99.90;;;;;;5075069;28;20280;-62
2023/08/31 02:22:31;;;;;;;22.67;21.87;;;15.70;99.90;;;;;;5074491;28;20294;-62
2023/08/31 02:24:58;;;;;;;21.67;20.93;;;15.60;99.90;;;;;;5075107;28;20590;-63
2023/08/31 02:27:24;;;;;;;22.23;21.43;;;15.60;99.90;;;;;;5075163;28;20210;-61
2023/08/31 02:29:51;;;;;;;20.00;19.30;;;15.50;99.90;;;;;;5074900;28;20223;-62
2023/08/31 02:32:18;;;;;;;21.93;21.20;;;15.50;99.90;;;;;;5074661;28;20632;-63
2023/08/31 02:34:46;;;;;;;22.63;21.87;;;15.50;99.90;;;;;;5074811;28;20214;-62
2023/08/31 02:37:13;;;;;;;25.10;24.20;;;15.50;99.90;;;;;;5074660;28;20229;-63
2023/08/31 02:39:40;;;;;;;23.20;22.40;;;15.50;99.90;;;;;;5074589;28;20223;-61
2023/08/31 02:42:08;;;;;;;22.57;21.77;;;15.50;99.90;;;;;;5074147;28;20203;-63
2023/08/31 02:44:34;;;;;;;22.50;21.70;;;15.50;99.90;;;;;;5074654;28;20294;-62
2023/08/31 02:47:01;;;;;;;23.53;22.73;;;15.40;99.90;;;;;;5081187;28;20203;-62
2023/08/31 02:49:28;;;;;;;24.93;24.07;;;15.60;99.90;;;;;;5075186;28;20223;-62
2023/08/31 02:51:56;;;;;;;21.23;20.53;;;15.40;99.90;;;;;;5074393;28;20209;-63
2023/08/31 02:54:23;;;;;;;20.13;19.43;;;15.40;99.90;;;;;;5076042;28;20203;-63
2023/08/31 02:56:50;;;;;;;24.83;23.93;;;15.40;99.90;;;;;;5077218;28;20203;-62
2023/08/31 02:59:17;;;;;;;23.53;22.70;;;15.30;99.90;;;;;;5074516;28;20334;-63
2023/08/31 03:01:46;;;;;;;21.70;20.93;;;15.40;99.90;;;;;;5074275;28;20579;-63
2023/08/31 03:04:13;;;;;;;22.97;22.17;;;15.40;99.90;;;;;;5076850;28;20691;-62
2023/08/31 03:06:39;;;;;;;26.30;25.37;;;15.30;99.90;;;;;;5075168;28;20555;-62
2023/08/31 03:09:07;;;;;;;22.90;22.10;;;15.30;99.90;;;;;;5087616;28;20230;-61
2023/08/31 03:11:34;;;;;;;28.47;27.47;;;15.30;99.90;;;;;;5094556;28;20684;-61
2023/08/31 03:14:01;;;;;;;24.17;23.33;;;15.30;99.90;;;;;;5094363;28;20229;-63
2023/08/31 03:16:28;;;;;;;21.80;21.07;;;15.40;99.90;;;;;;5094309;28;20257;-62
2023/08/31 03:18:55;;;;;;;24.27;23.40;;;15.40;99.90;;;;;;5094059;28;20329;-61
2023/08/31 03:21:21;;;;;;;22.03;21.23;;;15.40;99.90;;;;;;5095028;28;20199;-60
2023/08/31 03:23:48;;;;;;;23.30;22.50;;;15.50;99.90;;;;;;5098955;28;20217;-62
2023/08/31 03:26:16;;;;;;;21.23;20.47;;;15.50;99.90;;;;;;5095376;28;20203;-62
2023/08/31 03:28:43;;;;;;;25.90;24.93;;;15.50;99.90;;;;;;5094288;28;20321;-64
2023/08/31 03:31:10;;;;;;;22.60;21.80;;;15.50;99.90;;;;;;5094067;28;20689;-61
2023/08/31 03:33:37;;;;;;;23.83;22.97;;;15.50;99.90;;;;;;5095140;28;20553;-61
2023/08/31 03:36:05;;;;;;;23.47;22.67;;;15.50;99.90;;;;;;5095976;28;20211;-62
2023/08/31 03:38:32;;;;;;;24.83;23.93;;;15.50;99.90;;;;;;5095113;28;20577;-63
2023/08/31 03:40:59;;;;;;;23.60;22.80;;;15.50;99.90;;;;;;5095687;28;20206;-61
2023/08/31 03:43:27;;;;;;;24.67;23.83;;;15.50;99.90;;;;;;5095615;28;20203;-61
2023/08/31 03:45:57;;;;;;;28.80;27.80;;;15.50;99.90;;;;;;5094516;28;20218;-62
2023/08/31 03:48:24;;;;;;;24.60;23.73;;;15.50;99.90;;;;;;5093537;28;20222;-62
2023/08/31 03:50:52;;;;;;;22.30;21.50;;;15.50;99.90;;;;;;5093529;28;20582;-61
2023/08/31 03:53:19;;;;;;;25.00;24.10;;;15.60;99.90;;;;;;5093596;28;20306;-62
2023/08/31 03:55:46;;;;;;;25.77;24.87;;;15.50;99.90;;;;;;5093612;28;20206;-62
2023/08/31 03:58:13;;;;;;;21.97;21.20;;;15.50;99.90;;;;;;5093482;28;20227;-62
2023/08/31 04:00:41;;;;;;;23.57;22.77;;;15.40;99.90;;;;;;5093395;28;20591;-61
2023/08/31 04:03:10;;;;;;;20.33;19.63;;;15.40;99.90;;;;;;5092904;28;20665;-62
2023/08/31 04:05:36;;;;;;;22.00;21.23;;;15.40;99.90;;;;;;5093419;28;20688;-62
2023/08/31 04:08:04;;;;;;;22.67;21.90;;;15.40;99.90;;;;;;5093564;28;20518;-64
2023/08/31 04:10:31;;;;;;;20.63;19.93;;;15.50;99.90;;;;;;5105961;28;20214;-62
2023/08/31 04:12:58;;;;;;;23.70;22.90;;;15.50;99.90;;;;;;5095164;28;20210;-62
2023/08/31 04:15:25;;;;;;;19.47;18.77;;;15.40;99.90;;;;;;5093228;28;20210;-63
2023/08/31 04:17:53;;;;;;;23.13;22.33;;;15.40;99.90;;;;;;5094392;28;20230;-62
2023/08/31 04:20:20;;;;;;;20.93;20.23;;;15.40;99.90;;;;;;5094242;28;20256;-63
2023/08/31 04:22:47;;;;;;;20.97;20.23;;;15.40;99.90;;;;;;5093262;28;20228;-62
2023/08/31 04:25:13;;;;;;;22.63;21.83;;;15.40;99.90;;;;;;5093196;28;20209;-63
2023/08/31 04:27:40;;;;;;;20.77;20.07;;;15.40;99.90;;;;;;5092793;28;20198;-63
2023/08/31 04:30:08;;;;;;;24.13;23.33;;;15.40;99.90;;;;;;5093102;28;20235;-63
2023/08/31 04:32:35;;;;;;;26.40;25.50;;;15.40;99.90;;;;;;5092643;28;20203;-61
2023/08/31 04:35:04;;;;;;;23.27;22.47;;;15.30;99.90;;;;;;5092970;28;20199;-65
2023/08/31 04:37:32;;;;;;;22.07;21.27;;;15.60;99.90;;;;;;5092239;28;20233;-65
2023/08/31 04:39:59;;;;;;;20.87;20.13;;;15.60;99.90;;;;;;5092769;28;20218;-65
2023/08/31 04:42:26;;;;;;;21.63;20.90;;;15.60;99.90;;;;;;5092462;28;20207;-64
2023/08/31 04:44:53;;;;;;;20.80;20.10;;;15.50;99.90;;;;;;5092577;28;20213;-65
2023/08/31 04:47:20;;;;;;;21.53;20.80;;;15.40;99.90;;;;;;5092613;28;20229;-65
2023/08/31 04:49:47;;;;;;;21.90;21.17;;;15.40;99.90;;;;;;5092553;28;20258;-64
2023/08/31 04:52:15;;;;;;;21.00;20.27;;;15.40;99.90;;;;;;5092151;28;20208;-65
2023/08/31 04:54:42;;;;;;;21.27;20.53;;;15.50;99.90;;;;;;5092422;28;20213;-64
2023/08/31 04:57:10;;;;;;;21.27;20.53;;;15.40;99.90;;;;;;5092543;28;20312;-64
2023/08/31 04:59:36;;;;;;;20.53;19.83;;;15.40;99.90;;;;;;5092232;28;20780;-66
2023/08/31 05:02:03;;;;;;;22.75;21.92;;;15.30;99.90;;;;;;5091968;28;20205;-66
2023/08/31 05:04:30;;;;;;;21.33;20.60;;;15.30;99.90;;;;;;5092223;28;20199;-66
2023/08/31 05:06:57;;;;;;;21.10;20.30;;;15.30;99.90;;;;;;5083965;28;20302;-65
2023/08/31 05:09:26;;;;;;;23.33;22.53;;;15.20;99.90;;;;;;5057946;28;20234;-65
2023/08/31 05:11:53;;;;;;;21.30;20.57;;;15.20;99.90;;;;;;5051513;28;20968;-66
2023/08/31 05:14:20;;;;;;;23.38;22.55;;;15.20;99.90;;;;;;5052516;28;20249;-66
2023/08/31 05:16:47;;;;;;;22.00;21.20;;;15.20;99.90;;;;;;5052882;28;20204;-65
2023/08/31 05:19:14;;;;;;;21.47;20.77;;;15.20;99.90;;;;;;5051759;28;20232;-65
2023/08/31 05:21:41;;;;;;;21.40;20.60;;;15.20;99.90;;;;;;5051375;28;20237;-66
2023/08/31 05:24:08;;;;;;;20.57;19.83;;;15.30;99.90;;;;;;5051893;28;20203;-63
2023/08/31 05:26:36;;;;;;;20.97;20.17;;;15.30;99.90;;;;;;5051576;28;20203;-65
2023/08/31 05:29:05;;;;;;;21.80;21.07;;;15.20;99.90;;;;;;5051505;28;20750;-65
2023/08/31 05:31:31;;;;;;;21.77;21.00;;;15.30;99.90;;;;;;5051506;28;20210;-64
2023/08/31 05:33:59;;;;;;;22.47;21.63;;;15.30;99.90;;;;;;5051945;28;20582;-63
2023/08/31 05:36:25;;;;;;;21.70;20.90;;;15.40;99.90;;;;;;5051858;28;20200;-67
2023/08/31 05:38:52;;;;;;;20.93;20.23;;;15.40;99.90;;;;;;5051575;28;20241;-65
2023/08/31 05:41:19;;;;;;;22.70;21.90;;;15.40;99.90;;;;;;5053617;28;20650;-67
2023/08/31 05:43:47;;;;;;;21.57;20.77;;;15.40;99.90;;;;;;5051741;28;20211;-64
2023/08/31 05:46:14;;;;;;;22.33;21.57;;;15.40;99.90;;;;;;5052732;28;20590;-65
2023/08/31 05:48:41;;;;;;;20.50;19.80;;;15.50;99.90;;;;;;5050481;28;20238;-65
2023/08/31 05:51:08;;;;;;;20.67;19.97;;;15.50;99.90;;;;;;5051088;28;20203;-66
2023/08/31 05:53:35;;;;;;;21.70;20.90;;;15.50;99.90;;;;;;5052242;28;20612;-66
2023/08/31 05:56:04;;;;;;;21.60;20.87;;;15.60;99.90;;;;;;5052452;28;20239;-66
2023/08/31 05:58:32;;;;;;;21.87;21.07;;;15.60;99.90;;;;;;5051930;28;20239;-65
2023/08/31 06:01:00;;;;;;;21.90;21.10;;;15.80;99.90;;;;;;5050022;28;20222;-65
2023/08/31 06:03:28;;;;;;;20.13;19.43;;;15.60;99.90;;;;;;5050459;28;20204;-65
2023/08/31 06:05:55;;;;;;;21.03;20.27;;;15.60;99.90;;;;;;5051294;28;20227;-65
2023/08/31 06:08:22;;;;;;;21.60;20.90;;;15.70;99.90;;;;;;5050965;28;20227;-66
2023/08/31 06:10:49;;;;;;;20.57;19.87;;;15.70;99.90;;;;;;5050728;28;20676;-64
2023/08/31 06:13:16;;;;;;;21.87;21.13;;;15.80;99.90;;;;;;5055147;28;20238;-65
2023/08/31 06:15:44;;;;;;;20.20;19.50;;;15.80;99.90;;;;;;5065821;28;20211;-64
2023/08/31 06:18:12;;;;;;;19.47;18.77;;;15.80;99.90;;;;;;5054320;28;20255;-66
2023/08/31 06:20:39;;;;;;;19.47;18.77;;;15.90;99.90;;;;;;5051558;28;20226;-67
2023/08/31 06:23:06;;;;;;;20.13;19.40;;;16.10;99.90;;;;;;5050754;28;20204;-67
2023/08/31 06:25:33;;;;;;;20.00;19.30;;;16.00;99.90;;;;;;5051221;28;20200;-65
2023/08/31 06:28:00;;;;;;;20.83;20.10;;;16.00;99.90;;;;;;5050937;28;20204;-66
2023/08/31 06:30:27;;;;;;;24.00;23.20;;;16.10;99.90;;;;;;5051055;28;20294;-66
2023/08/31 06:32:53;;;;;;;21.37;20.63;;;16.10;99.90;;;;;;5050136;28;20204;-67
2023/08/31 06:35:21;;;;;;;20.33;19.60;;;16.10;99.90;;;;;;5050517;28;20598;-66
2023/08/31 06:37:50;;;;;;;19.57;18.87;;;16.20;99.90;;;;;;5050937;28;20231;-66
2023/08/31 06:40:17;;;;;;;22.90;22.07;;;16.30;99.90;;;;;;5050683;28;20574;-66
2023/08/31 06:42:44;;;;;;;16.20;15.63;;;16.40;99.90;;;;;;5050476;28;20208;-67
2023/08/31 06:45:11;;;;;;;19.63;18.93;;;16.40;99.90;;;;;;5051369;28;20608;-64
2023/08/31 06:47:38;;;;;;;20.07;19.37;;;16.50;99.90;;;;;;5051191;28;20212;-64
2023/08/31 06:50:06;;;;;;;15.80;15.27;;;16.60;99.90;;;;;;5051518;28;20339;-65
2023/08/31 06:52:34;;;;;;;17.90;17.27;;;16.60;99.90;;;;;;5050860;28;20207;-66
2023/08/31 06:55:02;;;;;;;21.90;21.13;;;16.60;99.90;;;;;;5050881;28;20208;-65
2023/08/31 06:57:29;;;;;;;20.87;20.10;;;16.70;99.90;;;;;;5050851;28;20731;-66
2023/08/31 06:59:56;;;;;;;15.90;15.37;;;16.80;99.90;;;;;;5053385;28;20238;-65
2023/08/31 07:02:24;;;;;;;13.67;13.20;;;16.90;99.90;;;;;;5054553;28;20215;-64
2023/08/31 07:04:52;;;;;;;15.83;15.30;;;16.90;99.90;;;;;;5054593;28;20298;-65
2023/08/31 07:07:18;;;;;;;13.27;12.77;;;17.00;99.90;;;;;;5055002;28;20295;-65
2023/08/31 07:09:48;;;;;;;15.33;14.73;;;17.00;99.90;;;;;;5054590;28;20224;-65
2023/08/31 07:12:15;;;;;;;12.83;12.40;;;17.10;99.90;;;;;;5055098;28;20690;-65
2023/08/31 07:14:42;;;;;;;14.13;13.53;;;17.10;99.90;;;;;;5054140;28;20210;-67
2023/08/31 07:17:08;;;;;;;15.57;15.00;;;17.20;99.90;;;;;;5054777;28;20207;-65
2023/08/31 07:19:37;;;;;;;14.30;13.80;;;17.30;99.90;;;;;;5054285;28;20226;-66
2023/08/31 07:22:06;;;;;;;12.97;12.50;;;17.40;99.90;;;;;;5053495;28;20212;-65
2023/08/31 07:24:34;;;;;;;12.50;12.10;;;17.40;99.90;;;;;;5054293;28;20208;-66
2023/08/31 07:27:03;;;;;;;12.67;12.27;;;17.40;99.90;;;;;;5053921;28;20218;-66
2023/08/31 07:29:29;;;;;;;12.23;11.83;;;17.50;99.90;;;;;;5053605;28;20220;-66
2023/08/31 07:31:56;;;;;;;11.53;11.13;;;17.50;99.90;;;;;;5053758;28;20294;-65
2023/08/31 07:34:23;;;;;;;12.63;12.23;;;17.70;99.90;;;;;;5055161;28;20234;-64
2023/08/31 07:36:50;;;;;;;11.20;10.80;;;17.90;99.90;;;;;;5054168;28;20261;-65
2023/08/31 07:39:18;;;;;;;11.20;10.80;;;18.10;99.90;;;;;;5054736;28;20224;-66
2023/08/31 07:41:44;;;;;;;9.43;9.13;;;18.30;99.90;;;;;;5053218;28;20686;-65
2023/08/31 07:44:13;;;;;;;9.20;8.90;;;18.50;99.90;;;;;;5054144;28;20295;-67
2023/08/31 07:46:39;;;;;;;8.80;8.50;;;18.60;99.90;;;;;;5054538;28;20204;-65
2023/08/31 07:49:07;;;;;;;9.50;9.20;;;18.50;99.90;;;;;;5053984;28;20713;-66
2023/08/31 07:51:33;;;;;;;9.73;9.43;;;18.50;99.90;;;;;;5055115;28;20256;-65
2023/08/31 07:54:03;;;;;;;9.53;9.23;;;18.70;99.90;;;;;;5053563;28;20218;-66
2023/08/31 07:56:29;;;;;;;9.10;8.80;;;18.80;99.90;;;;;;5053409;28;20695;-67
2023/08/31 07:58:56;;;;;;;8.73;8.43;;;18.70;99.90;;;;;;5053292;28;20234;-65
2023/08/31 08:01:24;;;;;;;8.87;8.57;;;18.60;99.90;;;;;;5053100;28;20210;-66
2023/08/31 08:03:51;;;;;;;8.77;8.47;;;18.80;99.90;;;;;;5053843;28;20253;-67
2023/08/31 08:06:18;;;;;;;8.93;8.63;;;18.90;99.90;;;;;;5053455;28;20227;-64
2023/08/31 08:08:45;;;;;;;9.40;9.10;;;18.90;99.90;;;;;;5091813;22;20217;-65
2023/08/31 08:11:12;;;;;;;10.68;10.27;;;18.90;99.90;;;;;;5100096;28;20223;-64
2023/08/31 08:13:39;;;;;;;10.87;10.47;;;19.00;99.90;;;;;;5095507;28;20238;-64
2023/08/31 08:16:05;;;;;;;11.17;10.77;;;19.20;99.90;;;;;;5092822;28;20213;-64
2023/08/31 08:18:33;;;;;;;11.55;11.15;;;19.20;99.90;;;;;;5092879;28;20213;-65
2023/08/31 08:21:00;;;;;;;10.80;10.40;;;19.20;99.90;;;;;;5099287;28;20202;-64
2023/08/31 08:23:27;;;;;;;10.67;10.27;;;19.30;99.90;;;;;;5092759;28;20206;-66
2023/08/31 08:25:54;;;;;;;12.27;11.88;;;19.40;99.90;;;;;;5092559;28;20203;-64
2023/08/31 08:28:21;;;;;;;12.30;11.83;;;19.40;99.90;;;;;;5095276;28;20213;-65
2023/08/31 08:30:47;;;;;;;12.03;11.63;;;19.50;99.90;;;;;;5094049;28;20305;-65
2023/08/31 08:33:14;;;;;;;12.07;11.68;;;19.50;99.90;;;;;;5093593;28;20216;-64
2023/08/31 08:35:42;;;;;;;12.60;12.10;;;19.70;99.90;;;;;;5093532;28;20207;-64
2023/08/31 08:38:09;;;;;;;11.43;11.02;;;19.60;99.90;;;;;;5092254;28;20305;-63
2023/08/31 08:40:36;;;;;;;11.73;11.32;;;19.80;99.90;;;;;;5092308;28;20592;-65
2023/08/31 08:43:06;;;;;;;11.50;11.10;;;19.80;99.90;;;;;;5091844;28;20781;-63
2023/08/31 08:45:38;;;;;;;11.93;11.52;;;19.80;99.90;;;;;;5092020;28;20203;-65
2023/08/31 08:48:06;;;;;;;11.07;10.68;;;19.70;99.90;;;;;;5092385;28;20184;-67
2023/08/31 08:50:35;;;;;;;11.30;10.90;;;19.70;99.90;;;;;;5091746;28;20761;-63
2023/08/31 08:53:03;;;;;;;11.60;11.20;;;19.70;99.90;;;;;;5092098;28;20299;-64
2023/08/31 08:55:30;;;;;;;11.30;10.90;;;19.70;99.90;;;;;;5092463;28;20621;-66
2023/08/31 08:58:00;;;;;;;11.48;11.07;;;19.70;99.90;;;;;;5092522;28;20297;-65
2023/08/31 09:00:27;;;;;;;10.87;10.47;;;19.60;99.90;;;;;;5092161;28;20226;-66
2023/08/31 09:02:54;;;;;;;9.88;9.55;;;19.60;99.90;;;;;;5091731;28;20206;-64
2023/08/31 09:05:21;;;;;;;10.53;10.13;;;19.60;99.90;;;;;;5092332;28;20202;-64
2023/08/31 09:08:03;;;;;;;11.40;11.00;;;19.80;99.90;;;;;;5091882;28;20213;-64
2023/08/31 09:10:35;;;;;;;12.20;11.80;;;19.70;99.90;;;;;;5091766;28;20229;-65
2023/08/31 09:13:04;;;;;;;12.73;12.23;;;19.70;99.90;;;;;;5091518;28;20829;-65
2023/08/31 09:15:37;;;;;;;11.67;11.27;;;19.70;99.90;;;;;;5091530;28;20214;-64
2023/08/31 09:18:05;;;;;;;12.13;11.73;;;19.70;99.90;;;;;;5091643;28;20187;-64
2023/08/31 09:20:32;;;;;;;12.57;11.97;;;19.90;99.90;;;;;;5091507;28;20241;-64
2023/08/31 09:22:59;;;;;;;12.88;12.38;;;19.90;99.90;;;;;;5090932;28;20704;-65
2023/08/31 09:25:27;;;;;;;12.77;12.27;;;20.20;99.90;;;;;;5091919;28;20289;-63
2023/08/31 09:27:54;;;;;;;13.37;12.87;;;20.60;99.90;;;;;;5091706;28;20678;-66
2023/08/31 09:30:21;;;;;;;13.37;12.93;;;20.60;99.90;;;;;;5092378;28;20225;-65
2023/08/31 09:32:53;;;;;;;12.50;12.10;;;20.50;99.90;;;;;;5091263;28;20598;-65
2023/08/31 09:35:20;;;;;;;12.65;12.25;;;20.50;99.90;;;;;;5091626;28;20214;-65
2023/08/31 09:37:57;;;;;;;13.00;12.57;;;20.40;99.90;;;;;;5091358;28;20313;-65
2023/08/31 09:40:23;;;;;;;14.53;14.03;;;20.30;99.90;;;;;;5091093;28;20237;-66
2023/08/31 09:42:52;;;;;;;12.40;12.00;;;20.30;99.90;;;;;;5090836;28;20207;-67
2023/08/31 09:45:25;;;;;;;12.23;11.73;;;20.40;99.90;;;;;;5091070;28;20206;-64
2023/08/31 09:47:52;;;;;;;13.53;13.03;;;20.50;99.90;;;;;;5091258;28;20281;-65
2023/08/31 09:50:21;;;;;;;11.32;10.93;;;20.50;99.90;;;;;;5091063;28;20705;-64
2023/08/31 09:52:51;;;;;;;10.68;10.27;;;20.80;99.90;;;;;;5091031;28;20241;-64
2023/08/31 09:55:20;;;;;;;13.52;13.02;;;20.70;99.90;;;;;;5091268;28;20206;-64
2023/08/31 09:57:49;;;;;;;10.73;10.32;;;20.70;99.90;;;;;;5090891;28;20205;-67
2023/08/31 10:00:18;;;;;;;10.90;10.50;;;20.80;99.90;;;;;;5091000;28;20233;-65
2023/08/31 10:02:47;;;;;;;10.93;10.52;;;21.00;99.90;;;;;;5090559;28;20303;-65
2023/08/31 10:05:15;;;;;;;10.63;10.23;;;21.30;99.90;;;;;;5090970;28;20562;-67
2023/08/31 10:07:43;;;;;;;10.83;10.43;;;21.50;99.90;;;;;;5090678;28;20207;-64
2023/08/31 10:10:10;;;;;;;11.73;11.33;;;21.60;99.90;;;;;;5090715;28;20222;-65
2023/08/31 10:12:39;;;;;;;15.63;15.03;;;21.50;99.90;;;;;;5090422;28;20206;-66
2023/08/31 10:15:08;;;;;;;15.27;14.67;;;21.40;99.90;;;;;;5090983;28;20199;-65
2023/08/31 10:17:37;;;;;;;12.70;12.30;;;21.30;99.90;;;;;;5090603;28;20681;-67
2023/08/31 10:20:04;;;;;;;12.10;11.70;;;21.50;99.90;;;;;;5090552;28;20230;-64
2023/08/31 10:22:32;;;;;;;12.03;11.60;;;21.50;99.90;;;;;;5090910;28;20210;-65
2023/08/31 10:25:00;;;;;;;12.68;12.27;;;21.40;99.90;;;;;;5091041;28;20211;-65
2023/08/31 10:27:27;;;;;;;11.65;11.25;;;21.50;99.90;;;;;;5091013;28;20206;-65
2023/08/31 10:29:54;;;;;;;12.55;12.15;;;21.40;99.90;;;;;;5090587;28;20226;-64
2023/08/31 10:32:22;;;;;;;17.15;16.55;;;21.50;99.90;;;;;;5090371;28;20199;-65
2023/08/31 10:35:09;;;;;;;12.70;12.30;;;21.20;99.90;;;;;;5092978;28;20226;-65
2023/08/31 10:37:36;;;;;;;12.60;12.20;;;21.30;99.90;;;;;;5094639;28;20198;-66
2023/08/31 10:40:11;;;;;;;13.38;12.90;;;21.70;99.90;;;;;;5094292;28;20222;-65
2023/08/31 10:42:46;;;;;;;13.25;12.75;;;21.90;99.90;;;;;;5096386;28;20285;-65
2023/08/31 10:45:14;;;;;;;14.57;14.07;;;22.10;99.90;;;;;;5096388;28;20210;-66
2023/08/31 10:47:42;;;;;;;14.63;14.13;;;22.30;99.90;;;;;;5096790;28;20536;-65
2023/08/31 10:50:22;;;;;;;17.17;16.58;;;22.50;99.90;;;;;;5104703;28;20609;-66
2023/08/31 10:52:49;;;;;;;17.95;17.35;;;22.50;99.90;;;;;;5104941;28;20229;-64
2023/08/31 10:55:16;;;;;;;17.48;16.88;;;22.80;99.90;;;;;;5104002;28;20263;-64
2023/08/31 10:57:43;;;;;;;17.10;16.50;;;23.00;99.90;;;;;;5100455;28;20649;-63
2023/08/31 11:00:13;;;;;;;17.92;17.30;;;23.50;99.90;;;;;;5096091;28;20311;-64
2023/08/31 11:02:43;;;;;;;18.98;18.27;;;23.70;99.90;;;;;;5095863;28;20246;-66
2023/08/31 11:05:11;;;;;;;19.13;18.33;;;23.90;99.90;;;;;;5094210;28;20293;-64
2023/08/31 11:07:41;;;;;;;20.48;19.77;;;23.90;99.90;;;;;;5094122;28;20198;-67
2023/08/31 11:10:16;;;;;;;18.30;17.70;;;23.90;99.90;;;;;;5093456;28;20658;-65
2023/08/31 11:12:45;;;;;;;19.98;19.27;;;24.10;99.90;;;;;;5093765;28;20205;-65
2023/08/31 11:15:14;;;;;;;21.55;20.83;;;24.10;99.90;;;;;;5094101;28;20202;-67
2023/08/31 11:17:41;;;;;;;21.73;20.92;;;24.00;99.90;;;;;;5093994;28;20206;-64
2023/08/31 11:20:09;;;;;;;20.85;20.15;;;24.00;99.90;;;;;;5094043;28;20236;-65
2023/08/31 11:22:42;;;;;;;22.98;22.17;;;24.30;99.90;;;;;;5089320;28;20202;-64
2023/08/31 11:25:10;;;;;;;21.38;20.63;;;24.50;99.90;;;;;;5091859;28;20278;-66
2023/08/31 11:27:38;;;;;;;22.52;21.73;;;24.40;99.90;;;;;;5091853;28;20202;-65
2023/08/31 11:30:11;;;;;;;22.27;21.48;;;24.30;99.90;;;;;;5089995;28;20222;-66
2023/08/31 11:32:44;;;;;;;23.10;22.30;;;24.20;99.90;;;;;;5092180;28;20282;-65
2023/08/31 11:35:11;;;;;;;20.10;19.40;;;23.90;99.90;;;;;;5091778;28;20228;-65
2023/08/31 11:37:39;;;;;;;20.75;20.05;;;23.80;99.90;;;;;;5091969;28;20210;-66
2023/08/31 11:40:07;;;;;;;21.25;20.48;;;23.70;99.90;;;;;;5087697;28;20605;-65
2023/08/31 11:42:35;;;;;;;21.27;20.58;;;23.90;99.90;;;;;;5072415;28;20225;-65
2023/08/31 11:45:05;;;;;;;20.77;20.08;;;24.00;99.90;;;;;;5073388;28;20207;-64
2023/08/31 11:47:32;;;;;;;22.35;21.55;;;24.10;99.90;;;;;;5074325;28;20245;-64
2023/08/31 11:49:59;;;;;;;21.52;20.77;;;24.20;99.90;;;;;;5072827;28;20593;-64
2023/08/31 11:52:27;;;;;;;24.08;23.20;;;24.30;99.90;;;;;;5071014;28;20199;-67
2023/08/31 11:54:55;;;;;;;22.65;21.85;;;24.20;99.90;;;;;;5071118;28;20238;-66
2023/08/31 11:57:28;;;;;;;24.88;23.98;;;24.00;99.90;;;;;;5071266;28;20532;-64
2023/08/31 11:59:56;;;;;;;24.25;23.35;;;23.80;99.90;;;;;;5070721;28;20232;-64
2023/08/31 12:02:23;;;;;;;22.13;21.33;;;23.60;99.90;;;;;;5071190;28;20298;-63
2023/08/31 12:04:49;;;;;;;23.42;22.63;;;23.40;99.90;;;;;;5071850;28;20601;-65
2023/08/31 12:07:18;;;;;;;30.17;29.08;;;23.20;99.90;;;;;;5070953;28;20265;-66
2023/08/31 12:09:45;;;;;;;55.08;52.50;;;23.00;99.90;;;;;;5070677;28;20613;-64
2023/08/31 12:12:14;;;;;;;25.30;24.40;;;22.90;99.90;;;;;;5071027;28;20209;-65
2023/08/31 12:14:41;;;;;;;24.45;23.60;;;22.70;99.90;;;;;;5071297;28;20203;-64
2023/08/31 12:17:09;;;;;;;23.90;23.08;;;22.70;99.90;;;;;;5077538;28;20211;-65
2023/08/31 12:19:38;;;;;;;22.27;21.47;;;22.70;99.90;;;;;;5087121;28;20226;-66
2023/08/31 12:22:07;;;;;;;24.35;23.45;;;22.70;99.90;;;;;;5093337;28;20195;-65
2023/08/31 12:24:40;;;;;;;24.88;23.98;;;22.70;99.90;;;;;;5092339;28;20238;-65
2023/08/31 12:27:07;;;;;;;25.63;24.73;;;22.60;99.90;;;;;;5092613;28;20191;-66
2023/08/31 12:29:35;;;;;;;21.75;20.95;;;22.50;99.90;;;;;;5092588;28;20230;-65
2023/08/31 12:32:02;;;;;;;18.98;18.27;;;22.50;99.90;;;;;;5092377;28;20205;-65
2023/08/31 12:34:30;;;;;;;19.60;18.90;;;22.40;99.90;;;;;;5092630;28;20301;-66